Aviation Digital Data Service (ADDS)

Output produced by TAFs form (1908 UTC 24 April 2014)
found at http://aviationweather.gov/adds/tafs/
 
KELP 241720Z 2418/2518 03006KT P6SM SKC 
     FM242100 23010KT P6SM FEW250 
     FM250600 VRB05KT P6SM SCT250